Time;durP1;ratioP1;P1;durP2;ratioP2;P2;SDS_P1;SDS_P2;PMS_P1;PMS_P2;Temp;Humidity;BMP_temperature;BMP_pressure;BME280_temperature;BME280_humidity;BME280_pressure;Samples;Min_cycle;Max_cycle;Signal;HPM_P1;HPM_P2
2022/04/23 00:01:14;;;;;;;17.60;16.00;;;13.00;93.80;;;;;;10409281;28;20629;-79
2022/04/23 00:06:17;;;;;;;18.77;16.87;;;13.00;93.70;;;;;;10422181;28;20469;-79
2022/04/23 00:11:19;;;;;;;18.13;16.43;;;13.00;93.20;;;;;;10411742;28;20222;-80
2022/04/23 00:16:22;;;;;;;17.17;15.40;;;13.00;93.00;;;;;;10388216;28;20657;-80
2022/04/23 00:21:50;;;;;;;;;;;;;;;;;;;;;
2022/04/23 00:26:57;;;;;;;19.20;17.20;;;12.90;93.60;;;;;;10406505;28;20291;-80
2022/04/23 00:31:59;;;;;;;16.30;14.90;;;12.80;94.00;;;;;;10413279;28;20218;-79
2022/04/23 00:37:04;;;;;;;16.63;14.93;;;12.80;93.70;;;;;;10414111;28;20212;-80
2022/04/23 00:42:09;;;;;;;15.90;14.30;;;12.80;94.10;;;;;;10398009;28;20222;-81
2022/04/23 00:47:11;;;;;;;15.03;13.63;;;12.80;94.10;;;;;;10397752;28;20205;-80
2022/04/23 00:52:14;;;;;;;14.77;13.47;;;12.70;94.30;;;;;;10414050;28;20218;-79
2022/04/23 00:57:16;;;;;;;15.17;13.77;;;12.80;94.60;;;;;;10424770;28;20282;-80
2022/04/23 01:02:19;;;;;;;15.27;13.80;;;12.80;95.00;;;;;;10432219;28;20225;-79
2022/04/23 01:07:23;;;;;;;15.10;13.60;;;12.80;93.80;;;;;;10448388;28;20188;-81
2022/04/23 01:12:25;;;;;;;14.00;12.70;;;12.90;94.70;;;;;;10394260;28;20252;-80
2022/04/23 01:17:27;;;;;;;14.53;13.23;;;12.90;94.60;;;;;;10415352;28;20260;-80
2022/04/23 01:22:31;;;;;;;14.07;12.87;;;12.90;94.40;;;;;;10413620;28;20235;-80
2022/04/23 01:27:34;;;;;;;14.40;12.87;;;12.90;94.30;;;;;;10400132;28;20255;-79
2022/04/23 01:32:36;;;;;;;14.00;12.80;;;12.90;95.00;;;;;;10401533;28;20273;-79
2022/04/23 01:37:40;;;;;;;13.33;12.17;;;12.90;95.20;;;;;;10414608;28;20248;-79
2022/04/23 01:42:42;;;;;;;14.27;12.97;;;12.90;94.70;;;;;;10375456;28;20217;-80
2022/04/23 01:47:44;;;;;;;14.37;13.07;;;12.90;95.10;;;;;;10397561;28;20646;-80
2022/04/23 01:52:47;;;;;;;14.07;12.83;;;12.90;95.50;;;;;;10390271;28;20618;-80
2022/04/23 01:57:49;;;;;;;14.70;13.30;;;12.90;95.60;;;;;;10390677;28;20279;-81
2022/04/23 02:02:52;;;;;;;15.47;13.87;;;12.90;95.20;;;;;;10408102;28;20246;-80
2022/04/23 02:07:55;;;;;;;15.57;14.17;;;12.80;95.30;;;;;;10384465;28;20202;-79
2022/04/23 02:12:57;;;;;;;15.23;13.83;;;12.80;95.40;;;;;;10422055;28;20237;-81
2022/04/23 02:18:00;;;;;;;14.43;13.23;;;12.80;95.40;;;;;;10398166;28;20928;-81
2022/04/23 02:23:03;;;;;;;16.63;15.23;;;12.70;95.30;;;;;;10375921;28;20225;-81
2022/04/23 02:28:06;;;;;;;16.20;14.80;;;12.70;94.20;;;;;;10414485;28;20186;-80
2022/04/23 02:33:08;;;;;;;16.90;15.40;;;12.60;95.60;;;;;;10422225;28;20218;-80
2022/04/23 02:38:12;;;;;;;17.83;16.03;;;12.60;96.10;;;;;;10414501;28;20223;-80
2022/04/23 02:43:14;;;;;;;18.10;16.47;;;12.60;96.10;;;;;;10397466;28;20220;-79
2022/04/23 02:48:16;;;;;;;15.57;14.27;;;12.50;96.70;;;;;;10427422;28;20646;-79
2022/04/23 02:53:19;;;;;;;16.13;14.70;;;12.50;96.50;;;;;;10435020;28;20232;-79
2022/04/23 02:58:21;;;;;;;19.10;17.50;;;12.50;96.50;;;;;;10401952;28;20221;-79
2022/04/23 03:03:25;;;;;;;16.80;15.30;;;12.50;96.10;;;;;;10414544;28;20225;-79
2022/04/23 03:08:30;;;;;;;17.33;15.63;;;12.40;96.60;;;;;;10419245;28;20195;-79
2022/04/23 03:13:34;;;;;;;17.27;15.77;;;12.30;96.70;;;;;;10411601;28;20268;-79
2022/04/23 03:18:36;;;;;;;17.70;16.20;;;12.30;96.30;;;;;;10416920;28;20220;-79
2022/04/23 03:23:39;;;;;;;17.13;15.73;;;12.20;96.40;;;;;;10406114;28;20303;-79
2022/04/23 03:28:42;;;;;;;16.67;15.17;;;12.10;96.70;;;;;;10414776;28;20631;-79
2022/04/23 03:33:45;;;;;;;17.80;16.30;;;12.00;95.90;;;;;;10418726;28;20348;-78
2022/04/23 03:38:49;;;;;;;16.47;14.97;;;11.80;96.30;;;;;;10396074;28;20229;-78
2022/04/23 03:43:52;;;;;;;19.03;17.30;;;11.70;96.70;;;;;;10419929;28;20218;-79
2022/04/23 03:48:54;;;;;;;18.40;16.90;;;11.60;96.80;;;;;;10418474;28;20198;-79
2022/04/23 03:53:57;;;;;;;18.50;16.80;;;11.50;96.60;;;;;;10395149;28;20276;-79
2022/04/23 03:59:00;;;;;;;19.47;17.70;;;11.40;97.00;;;;;;10412197;28;20205;-78
2022/04/23 04:04:02;;;;;;;17.07;15.67;;;11.40;97.20;;;;;;10409229;28;20268;-78
2022/04/23 04:09:05;;;;;;;17.70;16.20;;;11.30;97.30;;;;;;10395713;28;20673;-78
2022/04/23 04:14:08;;;;;;;18.83;17.20;;;11.30;97.30;;;;;;10411511;28;20222;-78
2022/04/23 04:19:10;;;;;;;18.77;17.07;;;11.20;97.50;;;;;;10395810;28;20682;-79
2022/04/23 04:24:14;;;;;;;19.43;17.80;;;11.20;97.90;;;;;;10403069;28;20219;-79
2022/04/23 04:29:17;;;;;;;17.50;15.90;;;11.30;97.80;;;;;;10413830;28;20240;-80
2022/04/23 04:34:20;;;;;;;18.17;16.57;;;11.30;97.40;;;;;;10416591;28;20222;-79
2022/04/23 04:39:24;;;;;;;16.47;15.07;;;11.30;97.90;;;;;;10393703;28;20229;-79
2022/04/23 04:44:26;;;;;;;17.00;15.60;;;11.30;98.10;;;;;;10392114;28;20218;-79
2022/04/23 04:49:28;;;;;;;16.17;14.73;;;11.40;98.30;;;;;;10396728;28;20288;-79
2022/04/23 04:54:32;;;;;;;14.83;13.50;;;11.50;98.10;;;;;;10413823;28;20224;-79
2022/04/23 04:59:34;;;;;;;14.50;13.20;;;11.70;97.90;;;;;;10386852;28;20304;-79
2022/04/23 05:04:36;;;;;;;14.60;13.37;;;11.80;98.10;;;;;;10398840;28;20214;-79
2022/04/23 05:09:40;;;;;;;13.00;11.90;;;11.90;98.00;;;;;;10409071;28;20214;-79
2022/04/23 05:14:42;;;;;;;13.93;12.77;;;12.10;98.00;;;;;;10416843;28;20221;-79
2022/04/23 05:19:45;;;;;;;13.10;12.00;;;12.20;97.90;;;;;;10412846;28;20210;-80
2022/04/23 05:24:48;;;;;;;14.17;12.83;;;12.30;97.90;;;;;;10492715;22;20767;-81
2022/04/23 05:29:50;;;;;;;14.07;12.77;;;12.50;97.50;;;;;;10451531;28;20765;-81
2022/04/23 05:34:53;;;;;;;14.53;13.13;;;12.60;97.00;;;;;;10468377;28;20217;-81
2022/04/23 05:39:56;;;;;;;14.00;12.83;;;12.60;96.90;;;;;;10460299;28;20596;-80
2022/04/23 05:44:58;;;;;;;13.83;12.63;;;12.70;95.60;;;;;;10498441;28;20225;-81
2022/04/23 05:50:00;;;;;;;14.73;13.33;;;12.70;96.20;;;;;;10474929;28;20674;-81
2022/04/23 05:55:05;;;;;;;13.53;12.43;;;12.80;97.00;;;;;;10482675;28;20248;-79
2022/04/23 06:00:09;;;;;;;14.07;12.87;;;13.00;96.70;;;;;;10467276;28;20660;-81
2022/04/23 06:05:15;;;;;;;13.97;12.77;;;13.10;96.50;;;;;;10464258;28;20221;-82
2022/04/23 06:10:18;;;;;;;13.47;12.37;;;13.20;95.60;;;;;;10463496;28;20669;-79
2022/04/23 06:15:21;;;;;;;13.80;12.60;;;13.20;95.30;;;;;;10464603;28;20625;-79
2022/04/23 06:20:23;;;;;;;13.03;11.67;;;13.30;95.40;;;;;;10465505;28;20598;-80
2022/04/23 06:25:26;;;;;;;13.30;12.20;;;13.30;95.20;;;;;;10464184;28;20225;-80
2022/04/23 06:30:29;;;;;;;12.73;11.60;;;13.30;96.00;;;;;;10465672;28;20223;-80
2022/04/23 06:35:31;;;;;;;11.93;10.93;;;13.50;95.30;;;;;;10466059;28;20691;-80
2022/04/23 06:40:35;;;;;;;11.30;10.40;;;13.50;95.30;;;;;;10466311;28;20681;-80
2022/04/23 06:45:38;;;;;;;11.03;10.03;;;13.60;94.90;;;;;;10461423;28;20197;-80
2022/04/23 06:50:40;;;;;;;10.97;10.10;;;13.70;95.10;;;;;;10448974;28;20217;-80
2022/04/23 06:55:43;;;;;;;9.40;8.70;;;13.80;94.20;;;;;;10452976;28;20668;-80
2022/04/23 07:00:45;;;;;;;9.93;9.13;;;13.80;94.00;;;;;;10472951;28;20251;-80
2022/04/23 07:05:48;;;;;;;10.20;9.40;;;13.80;93.10;;;;;;10471414;28;20246;-80
2022/04/23 07:10:52;;;;;;;10.63;9.80;;;13.80;93.10;;;;;;10470381;28;20213;-81
2022/04/23 07:15:54;;;;;;;10.73;9.90;;;13.80;92.70;;;;;;10479430;28;20198;-80
2022/04/23 07:20:56;;;;;;;10.60;9.70;;;13.90;91.00;;;;;;10465783;28;20221;-81
2022/04/23 07:26:00;;;;;;;10.90;10.00;;;13.70;92.20;;;;;;10463934;28;20197;-80
2022/04/23 07:31:02;;;;;;;10.20;9.30;;;13.70;92.60;;;;;;10464342;28;20206;-81
2022/04/23 07:41:27;;;;;;;10.50;9.60;;;14.00;93.10;;;;;;10465419;28;20305;-81
2022/04/23 07:46:29;;;;;;;8.03;7.40;;;14.20;90.70;;;;;;10466800;28;20197;-81
2022/04/23 07:51:31;;;;;;;9.37;8.60;;;14.30;90.70;;;;;;10456416;28;20232;-81
2022/04/23 07:56:35;;;;;;;10.07;9.17;;;14.30;91.20;;;;;;10481921;28;20208;-81
2022/04/23 08:01:37;;;;;;;9.20;8.50;;;14.40;89.40;;;;;;10461880;28;20235;-81
2022/04/23 08:06:39;;;;;;;8.97;8.17;;;14.30;90.80;;;;;;10461747;28;20228;-81
2022/04/23 08:11:42;;;;;;;9.87;8.97;;;14.60;91.30;;;;;;10460107;28;20217;-80
2022/04/23 08:16:45;;;;;;;9.97;8.97;;;14.80;91.00;;;;;;10460813;28;20468;-80
2022/04/23 08:21:48;;;;;;;9.13;8.33;;;15.20;89.40;;;;;;10460629;28;20225;-80
2022/04/23 08:26:51;;;;;;;9.23;8.53;;;15.40;90.60;;;;;;10455867;28;20193;-80
2022/04/23 08:31:53;;;;;;;10.63;9.63;;;15.50;88.10;;;;;;10438679;28;20225;-80
2022/04/23 08:36:56;;;;;;;10.33;9.40;;;15.50;89.90;;;;;;10455072;28;20258;-80
2022/04/23 08:42:01;;;;;;;8.90;8.07;;;15.60;88.90;;;;;;10457937;28;20672;-80
2022/04/23 08:47:04;;;;;;;10.30;9.40;;;15.60;89.70;;;;;;10421851;28;20193;-81
2022/04/23 08:52:13;;;;;;;11.33;10.33;;;15.70;86.50;;;;;;10415903;28;20213;-81
2022/04/23 08:57:17;;;;;;;10.40;9.50;;;15.70;87.00;;;;;;10416777;28;20181;-81
2022/04/23 09:02:19;;;;;;;10.83;9.80;;;15.70;85.90;;;;;;10415916;28;20299;-81
2022/04/23 09:07:22;;;;;;;10.40;9.50;;;15.70;87.10;;;;;;10418486;28;20178;-81
2022/04/23 09:12:28;;;;;;;10.00;9.20;;;15.70;86.10;;;;;;10441277;28;20263;-81
2022/04/23 09:28:18;;;;;;;11.10;10.00;;;16.20;87.10;;;;;;10456473;28;20191;-82
2022/04/23 09:33:27;;;;;;;11.17;10.17;;;16.30;85.70;;;;;;10432782;28;20275;-83
2022/04/23 09:38:30;;;;;;;10.37;9.47;;;16.40;84.80;;;;;;10452448;28;20197;-84
2022/04/23 09:43:34;;;;;;;10.27;9.20;;;16.40;83.80;;;;;;10454049;28;20260;-83
2022/04/23 09:48:38;;;;;;;8.50;7.80;;;16.30;84.30;;;;;;10455148;28;20239;-83
2022/04/23 09:53:41;;;;;;;9.13;8.30;;;16.20;85.90;;;;;;10454910;28;20209;-83
2022/04/23 09:58:45;;;;;;;8.37;7.60;;;16.10;86.70;;;;;;10455063;28;20280;-82
2022/04/23 10:03:50;;;;;;;8.80;8.00;;;16.10;86.10;;;;;;10453930;28;20681;-84
2022/04/23 10:08:57;;;;;;;8.80;8.00;;;16.10;88.10;;;;;;10453810;28;20208;-83
2022/04/23 10:14:05;;;;;;;7.57;6.97;;;16.20;87.20;;;;;;10454237;28;20217;-83
2022/04/23 10:19:08;;;;;;;6.63;6.03;;;16.20;87.10;;;;;;10456010;28;20205;-83
2022/04/23 10:24:16;;;;;;;7.00;6.40;;;16.30;89.50;;;;;;10472582;28;20233;-84
2022/04/23 10:29:22;;;;;;;5.73;5.33;;;16.40;87.90;;;;;;10462921;28;20199;-84
2022/04/23 10:34:31;;;;;;;6.77;6.07;;;16.40;87.60;;;;;;10465595;28;20220;-84
2022/04/23 10:39:33;;;;;;;5.87;5.43;;;16.40;87.20;;;;;;10463938;28;20209;-84
2022/04/23 10:44:37;;;;;;;9.77;7.87;;;16.50;88.40;;;;;;10470665;28;20220;-84
2022/04/23 10:49:41;;;;;;;6.47;5.97;;;16.80;88.30;;;;;;10465473;28;20602;-85
2022/04/23 10:54:58;;;;;;;6.57;5.97;;;16.90;86.20;;;;;;10468997;28;20210;-85
2022/04/23 11:00:13;;;;;;;6.50;6.00;;;17.00;85.00;;;;;;10460725;28;20220;-84
2022/04/23 11:16:13;;;;;;;7.87;7.07;;;17.00;87.00;;;;;;10455278;28;20189;-84
2022/04/23 11:21:20;;;;;;;6.80;6.30;;;16.90;84.00;;;;;;10475840;22;20221;-77
2022/04/23 11:26:39;;;;;;;7.37;6.70;;;16.90;87.30;;;;;;10455513;28;20197;-78
2022/04/23 11:31:50;;;;;;;7.30;6.70;;;16.90;87.90;;;;;;10418716;28;20221;-79
2022/04/23 11:36:54;;;;;;;8.73;7.90;;;16.80;88.10;;;;;;10458972;28;20204;-81
2022/04/23 11:41:59;;;;;;;7.53;6.83;;;16.80;88.40;;;;;;10460954;28;20232;-81
2022/04/23 11:47:12;;;;;;;9.93;8.33;;;16.80;87.90;;;;;;10463008;28;20243;-81
2022/04/23 11:52:14;;;;;;;7.40;6.80;;;16.90;83.70;;;;;;10456470;28;20416;-80
2022/04/23 11:57:18;;;;;;;8.47;7.77;;;16.80;87.80;;;;;;10456138;28;20197;-80
2022/04/23 12:02:24;;;;;;;7.93;7.23;;;16.90;87.90;;;;;;10457084;28;20770;-79
2022/04/23 12:07:27;;;;;;;8.67;7.93;;;17.00;88.20;;;;;;10450988;28;20239;-80
2022/04/23 12:12:31;;;;;;;9.60;7.00;;;17.00;87.70;;;;;;10470276;28;20320;-80
2022/04/23 12:17:46;;;;;;;7.77;7.17;;;17.10;84.70;;;;;;10454554;28;20229;-79
2022/04/23 12:22:59;;;;;;;11.63;8.57;;;17.10;86.40;;;;;;10451117;28;20220;-81
2022/04/23 12:40:43;;;;;;;7.80;7.20;;;17.30;83.40;;;;;;10450343;28;20591;-81
2022/04/23 12:44:19;;;;;;;7.70;7.00;;;17.40;83.00;;;;;;10441428;28;20333;-80
2022/04/23 12:49:23;;;;;;;7.93;7.17;;;17.40;85.60;;;;;;10442440;28;20209;-80
2022/04/23 12:54:25;;;;;;;7.90;7.20;;;17.60;87.20;;;;;;10446130;28;20225;-80
2022/04/23 12:59:27;;;;;;;8.40;7.60;;;17.70;84.40;;;;;;10444473;28;20213;-78
2022/04/23 13:04:31;;;;;;;7.47;6.77;;;17.60;85.40;;;;;;10445826;28;20218;-78
2022/04/23 13:09:33;;;;;;;7.57;6.87;;;17.50;84.00;;;;;;10444019;28;20197;-80
2022/04/23 13:14:35;;;;;;;8.40;7.70;;;17.40;83.80;;;;;;10442562;28;20237;-80
2022/04/23 13:19:39;;;;;;;7.67;7.07;;;17.30;84.40;;;;;;10445469;28;20296;-80
2022/04/23 13:24:41;;;;;;;9.40;8.60;;;17.20;85.40;;;;;;10443500;28;20279;-79
2022/04/23 13:29:43;;;;;;;8.80;8.00;;;17.20;85.00;;;;;;10446640;28;20455;-80
2022/04/23 13:34:46;;;;;;;9.00;8.23;;;17.20;87.60;;;;;;10447975;28;20750;-80
2022/04/23 13:39:48;;;;;;;9.27;8.47;;;17.10;84.90;;;;;;10451030;28;20212;-80
2022/04/23 13:44:51;;;;;;;8.77;7.93;;;17.00;86.90;;;;;;10446844;28;20290;-80
2022/04/23 13:49:54;;;;;;;9.13;8.37;;;17.00;89.00;;;;;;10448322;28;20284;-81
2022/04/23 13:54:56;;;;;;;8.50;7.77;;;17.30;89.70;;;;;;10449499;28;20220;-80
2022/04/23 13:59:59;;;;;;;9.20;8.40;;;17.50;89.90;;;;;;10456357;28;20213;-80
2022/04/23 14:10:22;;;;;;;7.43;6.87;;;17.70;83.60;;;;;;10451880;28;20209;-79
2022/04/23 14:15:24;;;;;;;8.10;7.50;;;17.60;87.10;;;;;;10460554;28;20618;-80
2022/04/23 14:20:27;;;;;;;9.13;8.33;;;17.60;86.90;;;;;;10455736;28;20213;-80
2022/04/23 14:25:30;;;;;;;9.83;9.00;;;17.70;88.40;;;;;;10456249;28;20304;-81
2022/04/23 14:30:33;;;;;;;8.87;8.07;;;17.60;86.90;;;;;;10458351;28;20645;-81
2022/04/23 14:35:37;;;;;;;9.97;9.07;;;17.50;88.50;;;;;;10458610;28;20217;-80
2022/04/23 14:40:39;;;;;;;12.73;10.97;;;17.40;87.70;;;;;;10452906;28;20213;-80
2022/04/23 14:45:42;;;;;;;11.90;10.80;;;17.30;85.00;;;;;;10457657;28;20312;-80
2022/04/23 14:56:21;;;;;;;12.10;11.00;;;17.10;86.00;;;;;;10460630;28;20201;-79
2022/04/23 15:01:23;;;;;;;11.20;10.30;;;17.00;89.20;;;;;;10458762;28;20221;-79
2022/04/23 15:06:27;;;;;;;11.63;10.73;;;17.00;90.40;;;;;;10458675;28;20197;-79
2022/04/23 15:11:29;;;;;;;11.70;10.70;;;17.10;90.30;;;;;;10462659;28;20212;-79
2022/04/23 15:16:31;;;;;;;10.97;10.07;;;17.20;89.90;;;;;;10456127;28;20206;-80
2022/04/23 15:21:34;;;;;;;11.10;10.23;;;17.20;90.20;;;;;;10437006;28;20278;-80
2022/04/23 15:26:39;;;;;;;12.37;11.17;;;17.30;90.50;;;;;;10454875;28;20189;-79
2022/04/23 15:31:41;;;;;;;12.10;11.10;;;17.30;89.60;;;;;;10436189;28;20244;-80
2022/04/23 15:36:45;;;;;;;13.03;11.93;;;17.40;89.30;;;;;;10454216;28;20280;-80
2022/04/23 15:41:47;;;;;;;11.97;10.87;;;17.30;89.50;;;;;;10458868;28;20284;-79
2022/04/23 15:46:49;;;;;;;11.97;10.97;;;17.30;90.10;;;;;;10459381;28;20204;-79
2022/04/23 15:51:53;;;;;;;11.07;9.97;;;17.30;86.50;;;;;;10461174;28;20219;-80
2022/04/23 15:56:55;;;;;;;11.50;10.50;;;17.20;90.50;;;;;;10461437;28;20197;-80
2022/04/23 16:01:57;;;;;;;12.80;11.60;;;17.30;91.20;;;;;;10457597;28;20271;-80
2022/04/23 16:07:02;;;;;;;15.90;10.67;;;17.30;90.70;;;;;;10457616;28;20657;-80
2022/04/23 16:12:05;;;;;;;12.90;11.67;;;17.20;90.30;;;;;;10468861;28;20308;-80
2022/04/23 16:17:07;;;;;;;12.50;11.30;;;17.20;88.90;;;;;;10456587;28;20628;-80
2022/04/23 16:22:11;;;;;;;12.20;11.20;;;17.10;89.80;;;;;;10456329;28;20225;-80
2022/04/23 16:27:13;;;;;;;14.20;11.33;;;17.00;90.40;;;;;;10456375;28;20232;-79
2022/04/23 16:32:18;;;;;;;13.43;12.13;;;16.90;91.40;;;;;;10456455;28;20266;-79
2022/04/23 16:48:13;;;;;;;13.80;11.67;;;16.60;91.90;;;;;;10455091;28;20616;-79
2022/04/23 16:53:17;;;;;;;15.30;11.97;;;16.60;92.10;;;;;;10455465;28;20259;-80
2022/04/23 16:58:19;;;;;;;14.37;13.07;;;16.60;92.40;;;;;;10452750;28;20208;-80
2022/04/23 17:03:24;;;;;;;13.40;12.00;;;16.60;92.30;;;;;;10458283;28;20247;-79
2022/04/23 17:08:27;;;;;;;13.83;12.63;;;16.60;90.40;;;;;;10462812;28;20287;-80
2022/04/23 17:13:30;;;;;;;13.90;12.60;;;16.60;92.10;;;;;;10459376;28;20240;-79
2022/04/23 17:18:35;;;;;;;14.53;13.23;;;16.60;92.70;;;;;;10441686;28;20201;-79
2022/04/23 17:23:39;;;;;;;14.40;13.07;;;16.50;92.90;;;;;;10483018;22;20229;-82
2022/04/23 17:28:41;;;;;;;13.67;12.47;;;16.50;93.00;;;;;;10450300;28;20616;-82
2022/04/23 17:33:43;;;;;;;15.83;14.03;;;16.40;93.50;;;;;;10446223;28;20580;-82
2022/04/23 17:38:56;;;;;;;12.90;11.67;;;16.40;94.20;;;;;;10441269;28;20201;-81
2022/04/23 17:43:59;;;;;;;15.83;12.60;;;16.30;94.10;;;;;;10450182;28;20225;-82
2022/04/23 17:49:01;;;;;;;12.40;11.20;;;16.30;94.10;;;;;;10443576;28;20543;-81
2022/04/23 17:54:06;;;;;;;12.73;11.53;;;16.20;94.30;;;;;;10472491;28;20218;-81
2022/04/23 17:59:08;;;;;;;14.17;12.77;;;16.10;94.20;;;;;;10438697;28;20229;-80
2022/04/23 18:09:33;;;;;;;14.40;13.10;;;15.80;95.00;;;;;;10415475;28;20203;-79
2022/04/23 18:14:36;;;;;;;13.57;12.37;;;15.70;95.20;;;;;;10449775;28;20210;-78
2022/04/23 18:19:39;;;;;;;13.87;12.47;;;15.60;95.50;;;;;;10419522;28;20198;-79
2022/04/23 18:24:45;;;;;;;14.13;12.83;;;15.50;95.30;;;;;;10430747;28;20217;-78
2022/04/23 18:29:48;;;;;;;14.13;12.73;;;15.50;94.90;;;;;;10452170;28;20733;-76
2022/04/23 18:34:50;;;;;;;14.90;13.40;;;15.50;95.10;;;;;;10427553;28;20706;-78
2022/04/23 18:39:53;;;;;;;20.00;17.83;;;15.40;95.10;;;;;;10445476;28;20263;-78
2022/04/23 18:44:56;;;;;;;16.83;13.23;;;15.40;94.90;;;;;;10451031;28;20225;-80
2022/04/23 18:49:58;;;;;;;14.27;12.97;;;15.30;94.50;;;;;;10458246;28;20251;-78
2022/04/23 18:55:01;;;;;;;13.70;12.50;;;15.20;94.70;;;;;;10430964;28;20313;-80
2022/04/23 19:00:05;;;;;;;14.60;13.10;;;15.10;94.80;;;;;;10431682;28;20207;-83
2022/04/23 19:05:09;;;;;;;13.83;12.53;;;15.00;94.60;;;;;;10458195;28;20253;-82
2022/04/23 19:10:13;;;;;;;14.87;13.47;;;14.90;94.90;;;;;;10432117;28;20205;-79
2022/04/23 19:15:15;;;;;;;14.17;12.87;;;14.80;95.00;;;;;;10465576;28;20236;-82
2022/04/23 19:20:17;;;;;;;15.60;14.10;;;14.60;95.00;;;;;;10437019;28;20197;-82
2022/04/23 19:30:49;;;;;;;17.50;15.80;;;14.40;95.20;;;;;;10390992;28;20201;-78
2022/04/23 19:35:51;;;;;;;14.87;13.47;;;14.30;95.30;;;;;;10446081;28;20218;-78
2022/04/23 19:40:55;;;;;;;15.37;13.83;;;14.30;95.20;;;;;;10433071;28;20236;-78
2022/04/23 19:45:57;;;;;;;14.97;13.60;;;14.10;95.60;;;;;;10456121;28;20292;-79
2022/04/23 19:50:59;;;;;;;16.40;14.90;;;14.00;95.80;;;;;;10432837;28;20193;-79
2022/04/23 19:56:03;;;;;;;20.67;18.77;;;13.90;96.00;;;;;;10449992;28;20218;-78
2022/04/23 20:01:05;;;;;;;16.87;15.20;;;13.80;96.10;;;;;;10429520;28;20217;-78
2022/04/23 20:06:07;;;;;;;17.30;15.50;;;13.80;96.40;;;;;;10451497;28;20631;-80
2022/04/23 20:11:11;;;;;;;16.20;14.80;;;13.80;96.50;;;;;;10423350;28;20205;-77
2022/04/23 20:16:13;;;;;;;17.10;15.43;;;13.70;96.50;;;;;;10448278;28;20190;-78
2022/04/23 20:21:16;;;;;;;15.23;13.90;;;13.70;96.10;;;;;;10427340;28;20209;-78
2022/04/23 20:26:19;;;;;;;15.47;14.10;;;13.70;96.50;;;;;;10453373;28;20194;-79
2022/04/23 20:31:21;;;;;;;16.10;14.60;;;13.60;96.30;;;;;;10427971;28;20189;-80
2022/04/23 20:41:45;;;;;;;15.40;13.80;;;13.50;97.00;;;;;;10437119;28;20240;-78
2022/04/23 20:46:47;;;;;;;15.20;13.70;;;13.50;97.10;;;;;;10427248;28;20224;-80
2022/04/23 20:51:50;;;;;;;14.77;13.40;;;13.50;97.00;;;;;;10449491;28;20241;-78
2022/04/23 20:56:53;;;;;;;15.53;14.17;;;13.40;97.10;;;;;;10423093;28;20284;-78
2022/04/23 21:01:55;;;;;;;14.40;13.10;;;13.30;97.10;;;;;;10448317;28;20590;-79
2022/04/23 21:06:57;;;;;;;15.23;13.80;;;13.30;97.00;;;;;;10421510;28;20384;-79
2022/04/23 21:12:01;;;;;;;16.47;14.83;;;13.20;97.20;;;;;;10424603;28;20217;-78
2022/04/23 21:17:03;;;;;;;15.93;14.43;;;13.10;97.20;;;;;;10431447;28;20202;-77
2022/04/23 21:22:05;;;;;;;14.70;13.40;;;13.10;97.60;;;;;;10421005;28;20294;-80
2022/04/23 21:27:09;;;;;;;16.00;14.53;;;13.00;97.50;;;;;;10449259;28;20198;-80
2022/04/23 21:32:11;;;;;;;14.50;13.20;;;13.00;97.30;;;;;;10422360;28;20209;-79
2022/04/23 21:37:14;;;;;;;14.83;13.33;;;12.90;97.50;;;;;;10450534;28;20214;-80
2022/04/23 21:47:43;;;;;;;16.10;14.70;;;12.80;97.80;;;;;;10431905;28;20200;-80
2022/04/23 21:52:47;;;;;;;17.73;15.97;;;12.70;97.70;;;;;;10422845;28;20562;-79
2022/04/23 21:57:52;;;;;;;16.03;14.53;;;12.70;97.80;;;;;;10450502;28;20229;-80
2022/04/23 22:02:54;;;;;;;17.83;16.13;;;12.70;97.40;;;;;;10421670;28;20308;-80
2022/04/23 22:07:57;;;;;;;18.00;16.30;;;12.60;97.90;;;;;;10448066;28;20213;-80
2022/04/23 22:13:00;;;;;;;17.20;15.50;;;12.60;98.00;;;;;;10423347;28;20217;-80
2022/04/23 22:18:02;;;;;;;17.67;16.03;;;12.50;98.10;;;;;;10458146;28;20674;-80
2022/04/23 22:23:04;;;;;;;18.80;17.00;;;12.50;98.10;;;;;;10424099;28;20221;-79
2022/04/23 22:28:08;;;;;;;18.17;15.47;;;12.50;98.00;;;;;;10471649;28;20650;-79
2022/04/23 22:33:10;;;;;;;19.20;17.50;;;12.50;98.20;;;;;;10429306;28;20221;-79
2022/04/23 22:38:15;;;;;;;17.77;16.17;;;12.40;98.30;;;;;;10460843;28;20186;-79
2022/04/23 22:43:20;;;;;;;17.23;15.63;;;12.40;98.30;;;;;;10459469;28;20673;-79
2022/04/23 22:48:22;;;;;;;16.97;15.47;;;12.40;98.30;;;;;;10429062;28;20189;-79
2022/04/23 22:53:24;;;;;;;17.80;16.10;;;12.30;98.40;;;;;;10456903;28;20245;-78
2022/04/23 22:58:28;;;;;;;16.70;15.20;;;12.30;98.20;;;;;;10422137;28;20197;-79
2022/04/23 23:03:30;;;;;;;16.10;14.57;;;12.20;98.30;;;;;;10453948;28;20217;-81
2022/04/23 23:08:32;;;;;;;16.47;14.87;;;12.20;98.40;;;;;;10421055;28;20193;-82
2022/04/23 23:13:35;;;;;;;15.87;14.43;;;12.10;98.70;;;;;;10454451;28;20706;-85
2022/04/23 23:18:37;;;;;;;16.47;14.87;;;12.10;98.60;;;;;;10422789;28;20624;-79
2022/04/23 23:23:40;;;;;;;16.03;14.53;;;12.00;98.50;;;;;;10449281;23;20221;-80
2022/04/23 23:28:43;;;;;;;15.67;14.20;;;12.00;98.50;;;;;;10413059;28;20319;-79
2022/04/23 23:33:45;;;;;;;17.07;15.47;;;11.90;98.50;;;;;;10375758;28;20224;-80
2022/04/23 23:38:47;;;;;;;17.27;15.57;;;11.90;98.60;;;;;;10403974;28;20269;-78
2022/04/23 23:43:51;;;;;;;17.00;15.50;;;11.80;98.60;;;;;;10391008;28;20226;-77
2022/04/23 23:48:54;;;;;;;16.53;15.03;;;11.80;98.70;;;;;;10371342;28;20206;-79
2022/04/23 23:53:56;;;;;;;16.20;14.60;;;11.80;99.00;;;;;;10354285;28;20254;-78
2022/04/23 23:58:59;;;;;;;16.60;15.00;;;11.80;99.00;;;;;;10370969;28;20711;-78
